sensor_id;sensor_type;location;lat;lon;timestamp;temperature;humidity
67093;SHT31;54011;50.772;7.730;2023-07-31T00:01:06;21.31;68.39
67093;SHT31;54011;50.772;7.730;2023-07-31T00:03:32;21.06;69.89
67093;SHT31;54011;50.772;7.730;2023-07-31T00:05:57;20.71;69.58
67093;SHT31;54011;50.772;7.730;2023-07-31T00:08:24;20.75;69.20
67093;SHT31;54011;50.772;7.730;2023-07-31T00:10:53;21.01;69.80
67093;SHT31;54011;50.772;7.730;2023-07-31T00:13:18;21.06;68.40
67093;SHT31;54011;50.772;7.730;2023-07-31T00:15:45;21.35;68.26
67093;SHT31;54011;50.772;7.730;2023-07-31T00:18:12;21.39;68.78
67093;SHT31;54011;50.772;7.730;2023-07-31T00:20:38;21.04;68.87
67093;SHT31;54011;50.772;7.730;2023-07-31T00:23:04;21.02;68.17
67093;SHT31;54011;50.772;7.730;2023-07-31T00:25:29;21.43;68.01
67093;SHT31;54011;50.772;7.730;2023-07-31T00:27:56;21.43;67.53
67093;SHT31;54011;50.772;7.730;2023-07-31T00:30:22;21.77;67.68
67093;SHT31;54011;50.772;7.730;2023-07-31T00:32:48;21.57;67.43
67093;SHT31;54011;50.772;7.730;2023-07-31T00:35:14;21.53;68.52
67093;SHT31;54011;50.772;7.730;2023-07-31T00:37:39;21.53;67.32
67093;SHT31;54011;50.772;7.730;2023-07-31T00:40:06;21.38;67.38
67093;SHT31;54011;50.772;7.730;2023-07-31T00:42:32;21.79;66.88
67093;SHT31;54011;50.772;7.730;2023-07-31T00:44:58;21.97;67.61
67093;SHT31;54011;50.772;7.730;2023-07-31T00:47:23;21.76;66.94
67093;SHT31;54011;50.772;7.730;2023-07-31T00:49:50;21.49;67.38
67093;SHT31;54011;50.772;7.730;2023-07-31T00:52:17;21.74;67.73
67093;SHT31;54011;50.772;7.730;2023-07-31T00:54:44;21.54;68.27
67093;SHT31;54011;50.772;7.730;2023-07-31T00:57:09;21.64;67.49
67093;SHT31;54011;50.772;7.730;2023-07-31T00:59:36;21.60;67.12
67093;SHT31;54011;50.772;7.730;2023-07-31T01:02:02;22.03;67.17
67093;SHT31;54011;50.772;7.730;2023-07-31T01:04:28;21.76;67.10
67093;SHT31;54011;50.772;7.730;2023-07-31T01:07:11;21.18;67.73
67093;SHT31;54011;50.772;7.730;2023-07-31T01:09:54;21.42;67.66
67093;SHT31;54011;50.772;7.730;2023-07-31T01:12:26;21.57;67.46
67093;SHT31;54011;50.772;7.730;2023-07-31T01:15:02;21.82;66.66
67093;SHT31;54011;50.772;7.730;2023-07-31T01:17:28;21.21;67.64
67093;SHT31;54011;50.772;7.730;2023-07-31T01:19:55;21.42;67.18
67093;SHT31;54011;50.772;7.730;2023-07-31T01:22:54;21.35;67.44
67093;SHT31;54011;50.772;7.730;2023-07-31T01:28:27;21.49;67.63
67093;SHT31;54011;50.772;7.730;2023-07-31T01:30:55;21.60;67.26
67093;SHT31;54011;50.772;7.730;2023-07-31T01:33:22;21.50;67.79
67093;SHT31;54011;50.772;7.730;2023-07-31T01:35:48;21.28;68.00
67093;SHT31;54011;50.772;7.730;2023-07-31T01:38:15;21.70;67.61
67093;SHT31;54011;50.772;7.730;2023-07-31T01:40:51;21.53;67.66
67093;SHT31;54011;50.772;7.730;2023-07-31T01:43:19;21.47;67.86
67093;SHT31;54011;50.772;7.730;2023-07-31T01:45:45;21.33;68.17
67093;SHT31;54011;50.772;7.730;2023-07-31T01:48:12;21.15;68.84
67093;SHT31;54011;50.772;7.730;2023-07-31T01:50:38;21.05;69.53
67093;SHT31;54011;50.772;7.730;2023-07-31T01:53:04;20.54;71.66
67093;SHT31;54011;50.772;7.730;2023-07-31T01:55:30;20.65;73.01
67093;SHT31;54011;50.772;7.730;2023-07-31T01:57:58;20.34;73.33
67093;SHT31;54011;50.772;7.730;2023-07-31T02:00:23;20.51;73.20
67093;SHT31;54011;50.772;7.730;2023-07-31T02:02:49;20.78;74.02
67093;SHT31;54011;50.772;7.730;2023-07-31T02:05:18;20.64;73.76
67093;SHT31;54011;50.772;7.730;2023-07-31T02:07:44;20.54;73.63
67093;SHT31;54011;50.772;7.730;2023-07-31T02:10:10;20.61;74.21
67093;SHT31;54011;50.772;7.730;2023-07-31T02:12:37;20.37;75.07
67093;SHT31;54011;50.772;7.730;2023-07-31T02:15:04;20.19;75.61
67093;SHT31;54011;50.772;7.730;2023-07-31T02:17:30;19.81;76.67
67093;SHT31;54011;50.772;7.730;2023-07-31T02:19:56;19.96;75.81
67093;SHT31;54011;50.772;7.730;2023-07-31T02:22:22;20.12;76.31
67093;SHT31;54011;50.772;7.730;2023-07-31T02:24:48;20.36;75.52
67093;SHT31;54011;50.772;7.730;2023-07-31T02:27:14;20.36;75.44
67093;SHT31;54011;50.772;7.730;2023-07-31T02:29:39;20.23;75.46
67093;SHT31;54011;50.772;7.730;2023-07-31T02:32:06;20.54;75.00
67093;SHT31;54011;50.772;7.730;2023-07-31T02:34:32;20.41;75.00
67093;SHT31;54011;50.772;7.730;2023-07-31T02:36:58;20.54;74.82
67093;SHT31;54011;50.772;7.730;2023-07-31T02:39:23;20.55;74.49
67093;SHT31;54011;50.772;7.730;2023-07-31T02:41:49;20.58;75.14
67093;SHT31;54011;50.772;7.730;2023-07-31T02:44:16;20.64;74.75
67093;SHT31;54011;50.772;7.730;2023-07-31T02:46:41;20.55;74.84
67093;SHT31;54011;50.772;7.730;2023-07-31T02:49:07;20.51;74.75
67093;SHT31;54011;50.772;7.730;2023-07-31T02:51:35;20.60;74.56
67093;SHT31;54011;50.772;7.730;2023-07-31T02:54:02;20.41;74.74
67093;SHT31;54011;50.772;7.730;2023-07-31T02:56:28;20.36;74.98
67093;SHT31;54011;50.772;7.730;2023-07-31T02:58:54;20.60;75.13
67093;SHT31;54011;50.772;7.730;2023-07-31T03:01:20;20.64;74.50
67093;SHT31;54011;50.772;7.730;2023-07-31T03:03:46;20.65;74.15
67093;SHT31;54011;50.772;7.730;2023-07-31T03:06:12;20.71;74.27
67093;SHT31;54011;50.772;7.730;2023-07-31T03:08:37;20.70;73.70
67093;SHT31;54011;50.772;7.730;2023-07-31T03:11:02;20.78;73.53
67093;SHT31;54011;50.772;7.730;2023-07-31T03:13:28;20.48;74.47
67093;SHT31;54011;50.772;7.730;2023-07-31T03:15:54;20.77;73.47
67093;SHT31;54011;50.772;7.730;2023-07-31T03:18:20;20.77;73.29
67093;SHT31;54011;50.772;7.730;2023-07-31T03:20:46;20.68;73.55
67093;SHT31;54011;50.772;7.730;2023-07-31T03:23:12;21.13;72.54
67093;SHT31;54011;50.772;7.730;2023-07-31T03:25:54;20.95;73.06
67093;SHT31;54011;50.772;7.730;2023-07-31T03:28:20;20.68;73.46
67093;SHT31;54011;50.772;7.730;2023-07-31T03:30:46;20.80;72.91
67093;SHT31;54011;50.772;7.730;2023-07-31T03:33:12;20.71;73.42
67093;SHT31;54011;50.772;7.730;2023-07-31T03:35:38;20.94;72.45
67093;SHT31;54011;50.772;7.730;2023-07-31T03:38:04;20.73;72.79
67093;SHT31;54011;50.772;7.730;2023-07-31T03:40:30;20.91;73.08
67093;SHT31;54011;50.772;7.730;2023-07-31T03:42:56;20.64;73.52
67093;SHT31;54011;50.772;7.730;2023-07-31T03:45:21;20.90;72.64
67093;SHT31;54011;50.772;7.730;2023-07-31T03:47:48;20.65;72.67
67093;SHT31;54011;50.772;7.730;2023-07-31T03:50:14;20.71;72.55
67093;SHT31;54011;50.772;7.730;2023-07-31T03:52:41;20.99;71.97
67093;SHT31;54011;50.772;7.730;2023-07-31T03:55:06;20.75;72.20
67093;SHT31;54011;50.772;7.730;2023-07-31T03:57:32;20.87;72.27
67093;SHT31;54011;50.772;7.730;2023-07-31T04:00:00;20.81;71.89
67093;SHT31;54011;50.772;7.730;2023-07-31T04:02:26;21.02;72.45
67093;SHT31;54011;50.772;7.730;2023-07-31T04:04:52;20.55;71.68
67093;SHT31;54011;50.772;7.730;2023-07-31T04:07:18;20.80;71.29
67093;SHT31;54011;50.772;7.730;2023-07-31T04:09:44;20.85;71.08
67093;SHT31;54011;50.772;7.730;2023-07-31T04:12:10;21.26;70.85
67093;SHT31;54011;50.772;7.730;2023-07-31T04:14:37;20.82;71.43
67093;SHT31;54011;50.772;7.730;2023-07-31T04:17:03;21.08;70.77
67093;SHT31;54011;50.772;7.730;2023-07-31T04:19:28;21.22;70.40
67093;SHT31;54011;50.772;7.730;2023-07-31T04:21:53;21.22;70.81
67093;SHT31;54011;50.772;7.730;2023-07-31T04:24:20;21.23;70.66
67093;SHT31;54011;50.772;7.730;2023-07-31T04:26:52;21.25;69.88
67093;SHT31;54011;50.772;7.730;2023-07-31T04:29:18;21.16;70.12
67093;SHT31;54011;50.772;7.730;2023-07-31T04:31:48;21.33;70.78
67093;SHT31;54011;50.772;7.730;2023-07-31T04:34:13;21.22;70.39
67093;SHT31;54011;50.772;7.730;2023-07-31T04:36:43;21.09;70.05
67093;SHT31;54011;50.772;7.730;2023-07-31T04:39:09;21.04;69.98
67093;SHT31;54011;50.772;7.730;2023-07-31T04:41:35;21.08;70.09
67093;SHT31;54011;50.772;7.730;2023-07-31T04:44:01;21.31;69.99
67093;SHT31;54011;50.772;7.730;2023-07-31T04:46:29;21.62;69.47
67093;SHT31;54011;50.772;7.730;2023-07-31T04:48:54;21.25;69.72
67093;SHT31;54011;50.772;7.730;2023-07-31T04:51:20;21.22;69.47
67093;SHT31;54011;50.772;7.730;2023-07-31T04:53:46;21.28;69.88
67093;SHT31;54011;50.772;7.730;2023-07-31T04:56:12;21.15;69.88
67093;SHT31;54011;50.772;7.730;2023-07-31T04:58:41;21.08;69.57
67093;SHT31;54011;50.772;7.730;2023-07-31T05:01:06;21.13;69.27
67093;SHT31;54011;50.772;7.730;2023-07-31T05:03:32;21.33;68.80
67093;SHT31;54011;50.772;7.730;2023-07-31T05:06:00;21.28;68.64
67093;SHT31;54011;50.772;7.730;2023-07-31T05:08:31;21.28;68.69
67093;SHT31;54011;50.772;7.730;2023-07-31T05:10:56;21.13;68.91
67093;SHT31;54011;50.772;7.730;2023-07-31T05:13:23;21.54;68.30
67093;SHT31;54011;50.772;7.730;2023-07-31T05:15:49;21.26;68.64
67093;SHT31;54011;50.772;7.730;2023-07-31T05:18:15;21.67;67.98
67093;SHT31;54011;50.772;7.730;2023-07-31T05:20:45;21.52;68.55
67093;SHT31;54011;50.772;7.730;2023-07-31T05:23:13;21.32;69.48
67093;SHT31;54011;50.772;7.730;2023-07-31T05:25:41;21.28;68.74
67093;SHT31;54011;50.772;7.730;2023-07-31T05:28:09;21.28;68.94
67093;SHT31;54011;50.772;7.730;2023-07-31T05:30:39;21.28;69.18
67093;SHT31;54011;50.772;7.730;2023-07-31T05:33:04;21.29;68.83
67093;SHT31;54011;50.772;7.730;2023-07-31T05:35:30;21.15;69.35
67093;SHT31;54011;50.772;7.730;2023-07-31T05:37:56;21.32;69.39
67093;SHT31;54011;50.772;7.730;2023-07-31T05:40:23;21.39;69.06
67093;SHT31;54011;50.772;7.730;2023-07-31T05:42:49;21.50;68.69
67093;SHT31;54011;50.772;7.730;2023-07-31T05:45:14;21.45;69.18
67093;SHT31;54011;50.772;7.730;2023-07-31T05:47:40;21.59;68.58
67093;SHT31;54011;50.772;7.730;2023-07-31T05:50:06;22.07;68.06
67093;SHT31;54011;50.772;7.730;2023-07-31T05:52:32;21.93;68.33
67093;SHT31;54011;50.772;7.730;2023-07-31T05:54:57;21.73;68.65
67093;SHT31;54011;50.772;7.730;2023-07-31T05:57:25;21.22;69.26
67093;SHT31;54011;50.772;7.730;2023-07-31T05:59:51;21.41;69.38
67093;SHT31;54011;50.772;7.730;2023-07-31T06:02:18;21.59;69.59
67093;SHT31;54011;50.772;7.730;2023-07-31T06:04:44;21.83;68.84
67093;SHT31;54011;50.772;7.730;2023-07-31T06:07:09;21.59;69.07
67093;SHT31;54011;50.772;7.730;2023-07-31T06:09:36;21.76;69.54
67093;SHT31;54011;50.772;7.730;2023-07-31T06:12:04;21.86;69.20
67093;SHT31;54011;50.772;7.730;2023-07-31T06:14:30;21.89;69.45
67093;SHT31;54011;50.772;7.730;2023-07-31T06:16:57;21.90;68.83
67093;SHT31;54011;50.772;7.730;2023-07-31T06:19:22;21.54;69.53
67093;SHT31;54011;50.772;7.730;2023-07-31T06:21:48;21.80;69.12
67093;SHT31;54011;50.772;7.730;2023-07-31T06:24:13;21.76;69.76
67093;SHT31;54011;50.772;7.730;2023-07-31T06:26:44;22.00;69.26
67093;SHT31;54011;50.772;7.730;2023-07-31T06:29:09;21.35;70.51
67093;SHT31;54011;50.772;7.730;2023-07-31T06:31:35;21.97;69.25
67093;SHT31;54011;50.772;7.730;2023-07-31T06:34:01;21.56;70.26
67093;SHT31;54011;50.772;7.730;2023-07-31T06:36:27;22.11;68.95
67093;SHT31;54011;50.772;7.730;2023-07-31T06:38:55;21.90;69.59
67093;SHT31;54011;50.772;7.730;2023-07-31T06:41:21;22.15;69.58
67093;SHT31;54011;50.772;7.730;2023-07-31T06:43:47;21.74;70.35
67093;SHT31;54011;50.772;7.730;2023-07-31T06:46:13;21.47;71.24
67093;SHT31;54011;50.772;7.730;2023-07-31T06:48:40;22.01;69.91
67093;SHT31;54011;50.772;7.730;2023-07-31T06:51:06;21.49;70.71
67093;SHT31;54011;50.772;7.730;2023-07-31T06:53:32;21.76;70.67
67093;SHT31;54011;50.772;7.730;2023-07-31T06:55:58;21.76;71.24
67093;SHT31;54011;50.772;7.730;2023-07-31T06:58:25;21.53;71.15
67093;SHT31;54011;50.772;7.730;2023-07-31T07:00:50;21.46;71.90
67093;SHT31;54011;50.772;7.730;2023-07-31T07:03:19;21.45;71.98
67093;SHT31;54011;50.772;7.730;2023-07-31T07:05:45;21.39;72.88
67093;SHT31;54011;50.772;7.730;2023-07-31T07:08:11;21.18;73.51
67093;SHT31;54011;50.772;7.730;2023-07-31T07:10:37;20.95;74.07
67093;SHT31;54011;50.772;7.730;2023-07-31T07:13:02;21.32;72.69
67093;SHT31;54011;50.772;7.730;2023-07-31T07:15:29;21.05;73.96
67093;SHT31;54011;50.772;7.730;2023-07-31T07:17:54;21.54;72.91
67093;SHT31;54011;50.772;7.730;2023-07-31T07:20:20;21.41;73.10
67093;SHT31;54011;50.772;7.730;2023-07-31T07:22:47;21.60;73.12
67093;SHT31;54011;50.772;7.730;2023-07-31T07:25:13;21.35;73.31
67093;SHT31;54011;50.772;7.730;2023-07-31T07:27:39;21.46;72.61
67093;SHT31;54011;50.772;7.730;2023-07-31T07:30:05;21.77;72.66
67093;SHT31;54011;50.772;7.730;2023-07-31T07:32:33;21.54;72.96
67093;SHT31;54011;50.772;7.730;2023-07-31T07:34:59;21.36;73.77
67093;SHT31;54011;50.772;7.730;2023-07-31T07:37:24;21.89;73.02
67093;SHT31;54011;50.772;7.730;2023-07-31T07:39:50;21.84;72.76
67093;SHT31;54011;50.772;7.730;2023-07-31T07:42:16;22.30;71.78
67093;SHT31;54011;50.772;7.730;2023-07-31T07:44:41;22.40;71.41
67093;SHT31;54011;50.772;7.730;2023-07-31T07:47:07;22.27;72.06
67093;SHT31;54011;50.772;7.730;2023-07-31T07:49:34;22.69;70.65
67093;SHT31;54011;50.772;7.730;2023-07-31T07:52:01;22.68;71.06
67093;SHT31;54011;50.772;7.730;2023-07-31T07:54:27;23.00;70.26
67093;SHT31;54011;50.772;7.730;2023-07-31T07:56:53;23.44;69.15
67093;SHT31;54011;50.772;7.730;2023-07-31T07:59:18;23.40;69.24
67093;SHT31;54011;50.772;7.730;2023-07-31T08:01:44;23.07;69.37
67093;SHT31;54011;50.772;7.730;2023-07-31T08:04:10;22.82;70.88
67093;SHT31;54011;50.772;7.730;2023-07-31T08:06:37;23.33;69.99
67093;SHT31;54011;50.772;7.730;2023-07-31T08:09:04;23.53;69.22
67093;SHT31;54011;50.772;7.730;2023-07-31T08:11:34;22.59;71.47
67093;SHT31;54011;50.772;7.730;2023-07-31T08:14:01;23.06;71.16
67093;SHT31;54011;50.772;7.730;2023-07-31T08:16:26;22.49;71.00
67093;SHT31;54011;50.772;7.730;2023-07-31T08:18:52;22.27;72.72
67093;SHT31;54011;50.772;7.730;2023-07-31T08:21:18;22.30;72.06
67093;SHT31;54011;50.772;7.730;2023-07-31T08:23:43;22.20;71.91
67093;SHT31;54011;50.772;7.730;2023-07-31T08:26:19;22.24;73.27
67093;SHT31;54011;50.772;7.730;2023-07-31T08:28:47;22.48;71.86
67093;SHT31;54011;50.772;7.730;2023-07-31T08:31:13;21.94;73.25
67093;SHT31;54011;50.772;7.730;2023-07-31T08:33:39;22.41;72.25
67093;SHT31;54011;50.772;7.730;2023-07-31T08:36:05;21.94;73.03
67093;SHT31;54011;50.772;7.730;2023-07-31T08:38:32;21.76;72.64
67093;SHT31;54011;50.772;7.730;2023-07-31T08:40:58;21.53;73.11
67093;SHT31;54011;50.772;7.730;2023-07-31T08:43:26;21.63;73.66
67093;SHT31;54011;50.772;7.730;2023-07-31T08:45:53;21.52;73.69
67093;SHT31;54011;50.772;7.730;2023-07-31T08:48:23;21.64;73.29
67093;SHT31;54011;50.772;7.730;2023-07-31T08:50:51;21.77;73.57
67093;SHT31;54011;50.772;7.730;2023-07-31T08:53:17;21.43;73.73
67093;SHT31;54011;50.772;7.730;2023-07-31T08:55:44;21.46;73.99
67093;SHT31;54011;50.772;7.730;2023-07-31T08:58:12;21.69;73.29
67093;SHT31;54011;50.772;7.730;2023-07-31T09:00:39;21.60;74.03
67093;SHT31;54011;50.772;7.730;2023-07-31T09:03:13;21.53;73.73
67093;SHT31;54011;50.772;7.730;2023-07-31T09:05:42;21.59;74.00
67093;SHT31;54011;50.772;7.730;2023-07-31T09:08:09;21.54;73.68
67093;SHT31;54011;50.772;7.730;2023-07-31T09:10:40;21.56;73.73
67093;SHT31;54011;50.772;7.730;2023-07-31T09:13:06;21.52;73.91
67093;SHT31;54011;50.772;7.730;2023-07-31T09:15:32;21.22;74.48
67093;SHT31;54011;50.772;7.730;2023-07-31T09:18:00;21.45;74.61
67093;SHT31;54011;50.772;7.730;2023-07-31T09:20:26;21.84;73.65
67093;SHT31;54011;50.772;7.730;2023-07-31T09:22:52;21.73;73.11
67093;SHT31;54011;50.772;7.730;2023-07-31T09:25:23;22.17;72.30
67093;SHT31;54011;50.772;7.730;2023-07-31T09:27:53;22.24;72.28
67093;SHT31;54011;50.772;7.730;2023-07-31T09:30:21;22.21;72.31
67093;SHT31;54011;50.772;7.730;2023-07-31T09:32:48;21.84;72.81
67093;SHT31;54011;50.772;7.730;2023-07-31T09:35:22;21.67;74.05
67093;SHT31;54011;50.772;7.730;2023-07-31T09:37:52;21.89;73.24
67093;SHT31;54011;50.772;7.730;2023-07-31T09:42:51;22.25;72.54
67093;SHT31;54011;50.772;7.730;2023-07-31T09:45:18;21.63;73.32
67093;SHT31;54011;50.772;7.730;2023-07-31T09:47:48;21.66;73.84
67093;SHT31;54011;50.772;7.730;2023-07-31T09:50:14;21.74;73.89
67093;SHT31;54011;50.772;7.730;2023-07-31T09:52:41;22.49;72.84
67093;SHT31;54011;50.772;7.730;2023-07-31T09:55:08;22.52;72.47
67093;SHT31;54011;50.772;7.730;2023-07-31T09:57:34;22.28;72.92
67093;SHT31;54011;50.772;7.730;2023-07-31T10:00:02;22.30;72.65
67093;SHT31;54011;50.772;7.730;2023-07-31T10:02:38;22.56;72.62
67093;SHT31;54011;50.772;7.730;2023-07-31T10:05:05;22.15;72.79
67093;SHT31;54011;50.772;7.730;2023-07-31T10:07:37;22.81;71.56
67093;SHT31;54011;50.772;7.730;2023-07-31T10:10:04;22.56;71.88
67093;SHT31;54011;50.772;7.730;2023-07-31T10:12:32;22.71;72.23
67093;SHT31;54011;50.772;7.730;2023-07-31T10:14:59;22.85;71.65
67093;SHT31;54011;50.772;7.730;2023-07-31T10:17:26;22.90;71.34
67093;SHT31;54011;50.772;7.730;2023-07-31T10:19:53;22.99;71.04
67093;SHT31;54011;50.772;7.730;2023-07-31T10:22:22;22.51;72.04
67093;SHT31;54011;50.772;7.730;2023-07-31T10:24:48;22.13;72.12
67093;SHT31;54011;50.772;7.730;2023-07-31T10:27:15;22.15;72.87
67093;SHT31;54011;50.772;7.730;2023-07-31T10:29:43;22.22;72.75
67093;SHT31;54011;50.772;7.730;2023-07-31T10:32:12;22.27;72.18
67093;SHT31;54011;50.772;7.730;2023-07-31T10:34:39;22.20;71.78
67093;SHT31;54011;50.772;7.730;2023-07-31T10:37:20;22.62;71.69
67093;SHT31;54011;50.772;7.730;2023-07-31T10:40:05;22.40;72.12
67093;SHT31;54011;50.772;7.730;2023-07-31T10:42:38;22.37;72.21
67093;SHT31;54011;50.772;7.730;2023-07-31T10:45:08;22.45;71.66
67093;SHT31;54011;50.772;7.730;2023-07-31T10:47:45;22.34;71.47
67093;SHT31;54011;50.772;7.730;2023-07-31T10:52:39;22.93;70.83
67093;SHT31;54011;50.772;7.730;2023-07-31T10:57:51;22.66;71.49
67093;SHT31;54011;50.772;7.730;2023-07-31T11:00:25;22.56;70.60
67093;SHT31;54011;50.772;7.730;2023-07-31T11:03:13;22.59;70.35
67093;SHT31;54011;50.772;7.730;2023-07-31T11:11:05;22.65;70.24
67093;SHT31;54011;50.772;7.730;2023-07-31T11:13:45;22.35;70.45
67093;SHT31;54011;50.772;7.730;2023-07-31T11:16:13;22.65;70.00
67093;SHT31;54011;50.772;7.730;2023-07-31T11:18:42;22.93;69.29
67093;SHT31;54011;50.772;7.730;2023-07-31T11:21:19;22.99;69.67
67093;SHT31;54011;50.772;7.730;2023-07-31T11:23:53;23.04;69.12
67093;SHT31;54011;50.772;7.730;2023-07-31T11:26:19;23.60;68.38
67093;SHT31;54011;50.772;7.730;2023-07-31T11:28:48;23.41;68.66
67093;SHT31;54011;50.772;7.730;2023-07-31T11:31:15;23.58;68.74
67093;SHT31;54011;50.772;7.730;2023-07-31T11:33:41;22.99;69.56
67093;SHT31;54011;50.772;7.730;2023-07-31T11:36:14;23.03;69.36
67093;SHT31;54011;50.772;7.730;2023-07-31T11:38:41;23.82;68.75
67093;SHT31;54011;50.772;7.730;2023-07-31T11:41:07;24.01;67.18
67093;SHT31;54011;50.772;7.730;2023-07-31T11:43:32;23.36;68.56
67093;SHT31;54011;50.772;7.730;2023-07-31T11:46:00;23.84;68.47
67093;SHT31;54011;50.772;7.730;2023-07-31T11:48:30;23.43;69.30
67093;SHT31;54011;50.772;7.730;2023-07-31T11:50:58;23.61;69.14
67093;SHT31;54011;50.772;7.730;2023-07-31T11:53:38;23.75;67.62
67093;SHT31;54011;50.772;7.730;2023-07-31T11:56:07;23.79;68.63
67093;SHT31;54011;50.772;7.730;2023-07-31T11:58:35;23.79;68.17
67093;SHT31;54011;50.772;7.730;2023-07-31T12:01:02;23.79;67.93
67093;SHT31;54011;50.772;7.730;2023-07-31T12:03:29;24.35;67.21
67093;SHT31;54011;50.772;7.730;2023-07-31T12:05:55;23.94;66.84
67093;SHT31;54011;50.772;7.730;2023-07-31T12:08:23;23.98;66.82
67093;SHT31;54011;50.772;7.730;2023-07-31T12:10:51;24.32;65.76
67093;SHT31;54011;50.772;7.730;2023-07-31T12:13:22;24.26;66.38
67093;SHT31;54011;50.772;7.730;2023-07-31T12:15:48;24.02;66.67
67093;SHT31;54011;50.772;7.730;2023-07-31T12:18:17;24.18;67.10
67093;SHT31;54011;50.772;7.730;2023-07-31T12:20:48;23.68;68.11
67093;SHT31;54011;50.772;7.730;2023-07-31T12:23:26;24.02;68.69
67093;SHT31;54011;50.772;7.730;2023-07-31T12:26:15;23.82;69.56
67093;SHT31;54011;50.772;7.730;2023-07-31T12:28:46;23.57;70.01
67093;SHT31;54011;50.772;7.730;2023-07-31T12:31:15;23.49;70.42
67093;SHT31;54011;50.772;7.730;2023-07-31T12:33:43;23.36;71.77
67093;SHT31;54011;50.772;7.730;2023-07-31T12:36:14;22.68;72.97
67093;SHT31;54011;50.772;7.730;2023-07-31T12:38:41;23.09;72.34
67093;SHT31;54011;50.772;7.730;2023-07-31T12:41:09;23.34;71.71
67093;SHT31;54011;50.772;7.730;2023-07-31T12:43:37;23.58;71.17
67093;SHT31;54011;50.772;7.730;2023-07-31T12:46:03;24.90;68.97
67093;SHT31;54011;50.772;7.730;2023-07-31T12:48:28;26.17;66.09
67093;SHT31;54011;50.772;7.730;2023-07-31T12:50:55;26.38;63.44
67093;SHT31;54011;50.772;7.730;2023-07-31T12:53:21;25.83;64.23
67093;SHT31;54011;50.772;7.730;2023-07-31T12:55:47;25.76;65.26
67093;SHT31;54011;50.772;7.730;2023-07-31T12:58:13;25.06;65.52
67093;SHT31;54011;50.772;7.730;2023-07-31T13:00:39;24.81;69.33
67093;SHT31;54011;50.772;7.730;2023-07-31T13:03:05;24.86;67.27
67093;SHT31;54011;50.772;7.730;2023-07-31T13:05:31;25.38;67.55
67093;SHT31;54011;50.772;7.730;2023-07-31T13:07:57;25.21;66.86
67093;SHT31;54011;50.772;7.730;2023-07-31T13:10:23;24.61;66.53
67093;SHT31;54011;50.772;7.730;2023-07-31T13:12:49;24.81;66.89
67093;SHT31;54011;50.772;7.730;2023-07-31T13:15:15;25.00;66.61
67093;SHT31;54011;50.772;7.730;2023-07-31T13:17:41;24.79;66.97
67093;SHT31;54011;50.772;7.730;2023-07-31T13:20:07;24.53;67.17
67093;SHT31;54011;50.772;7.730;2023-07-31T13:22:33;24.73;66.94
67093;SHT31;54011;50.772;7.730;2023-07-31T13:24:59;24.52;66.98
67093;SHT31;54011;50.772;7.730;2023-07-31T13:27:25;24.66;67.06
67093;SHT31;54011;50.772;7.730;2023-07-31T13:29:51;24.56;67.51
67093;SHT31;54011;50.772;7.730;2023-07-31T13:32:18;24.18;67.28
67093;SHT31;54011;50.772;7.730;2023-07-31T13:34:45;24.50;67.80
67093;SHT31;54011;50.772;7.730;2023-07-31T13:37:11;24.57;66.77
67093;SHT31;54011;50.772;7.730;2023-07-31T13:39:37;24.39;68.09
67093;SHT31;54011;50.772;7.730;2023-07-31T13:42:03;24.59;66.85
67093;SHT31;54011;50.772;7.730;2023-07-31T13:44:32;24.92;66.57
67093;SHT31;54011;50.772;7.730;2023-07-31T13:46:57;24.80;66.64
67093;SHT31;54011;50.772;7.730;2023-07-31T13:49:23;25.21;66.25
67093;SHT31;54011;50.772;7.730;2023-07-31T13:51:49;25.27;66.49
67093;SHT31;54011;50.772;7.730;2023-07-31T13:54:17;25.72;66.58
67093;SHT31;54011;50.772;7.730;2023-07-31T13:56:44;24.79;67.02
67093;SHT31;54011;50.772;7.730;2023-07-31T13:59:10;24.98;65.84
67093;SHT31;54011;50.772;7.730;2023-07-31T14:01:37;25.45;65.11
67093;SHT31;54011;50.772;7.730;2023-07-31T14:04:03;25.07;64.78
67093;SHT31;54011;50.772;7.730;2023-07-31T14:06:29;25.51;64.39
67093;SHT31;54011;50.772;7.730;2023-07-31T14:08:54;25.70;64.43
67093;SHT31;54011;50.772;7.730;2023-07-31T14:11:23;25.27;64.89
67093;SHT31;54011;50.772;7.730;2023-07-31T14:13:51;25.65;64.25
67093;SHT31;54011;50.772;7.730;2023-07-31T14:16:17;25.94;62.53
67093;SHT31;54011;50.772;7.730;2023-07-31T14:18:43;26.41;62.19
67093;SHT31;54011;50.772;7.730;2023-07-31T14:21:11;25.90;61.79
67093;SHT31;54011;50.772;7.730;2023-07-31T14:23:37;26.06;62.94
67093;SHT31;54011;50.772;7.730;2023-07-31T14:26:03;27.26;59.51
67093;SHT31;54011;50.772;7.730;2023-07-31T14:28:30;25.80;59.72
67093;SHT31;54011;50.772;7.730;2023-07-31T14:30:55;26.55;59.27
67093;SHT31;54011;50.772;7.730;2023-07-31T14:33:22;26.00;61.30
67093;SHT31;54011;50.772;7.730;2023-07-31T14:35:48;25.92;61.70
67093;SHT31;54011;50.772;7.730;2023-07-31T14:38:14;26.07;60.75
67093;SHT31;54011;50.772;7.730;2023-07-31T14:40:41;25.93;61.45
67093;SHT31;54011;50.772;7.730;2023-07-31T14:43:07;25.11;62.27
67093;SHT31;54011;50.772;7.730;2023-07-31T14:45:33;25.45;61.30
67093;SHT31;54011;50.772;7.730;2023-07-31T14:47:59;25.20;60.92
67093;SHT31;54011;50.772;7.730;2023-07-31T14:50:25;24.92;61.25
67093;SHT31;54011;50.772;7.730;2023-07-31T14:52:51;24.83;61.79
67093;SHT31;54011;50.772;7.730;2023-07-31T14:55:18;24.32;62.83
67093;SHT31;54011;50.772;7.730;2023-07-31T14:57:45;24.04;63.48
67093;SHT31;54011;50.772;7.730;2023-07-31T15:00:11;24.05;63.29
67093;SHT31;54011;50.772;7.730;2023-07-31T15:02:38;24.29;62.87
67093;SHT31;54011;50.772;7.730;2023-07-31T15:05:05;24.80;61.90
67093;SHT31;54011;50.772;7.730;2023-07-31T15:07:34;24.79;63.17
67093;SHT31;54011;50.772;7.730;2023-07-31T15:10:03;24.76;62.51
67093;SHT31;54011;50.772;7.730;2023-07-31T15:12:31;24.84;62.95
67093;SHT31;54011;50.772;7.730;2023-07-31T15:14:57;24.40;63.61
67093;SHT31;54011;50.772;7.730;2023-07-31T15:17:23;24.04;64.17
67093;SHT31;54011;50.772;7.730;2023-07-31T15:19:49;24.02;63.50
67093;SHT31;54011;50.772;7.730;2023-07-31T15:22:15;23.92;64.31
67093;SHT31;54011;50.772;7.730;2023-07-31T15:24:41;24.15;64.01
67093;SHT31;54011;50.772;7.730;2023-07-31T15:27:07;24.50;63.03
67093;SHT31;54011;50.772;7.730;2023-07-31T15:29:41;24.23;63.05
67093;SHT31;54011;50.772;7.730;2023-07-31T15:32:07;23.85;63.80
67093;SHT31;54011;50.772;7.730;2023-07-31T15:34:32;23.94;64.09
67093;SHT31;54011;50.772;7.730;2023-07-31T15:36:58;24.44;63.22
67093;SHT31;54011;50.772;7.730;2023-07-31T15:39:26;23.85;64.45
67093;SHT31;54011;50.772;7.730;2023-07-31T15:41:51;23.88;64.12
67093;SHT31;54011;50.772;7.730;2023-07-31T15:44:17;23.85;63.91
67093;SHT31;54011;50.772;7.730;2023-07-31T15:46:44;24.05;64.29